Terminal Aerodrome Forecast
Issued by NWS

Home | Current Version | Previous Version | Text Only | Print | Product List | Glossary On
Versions: 1 2 3 4 5 6 7 8 9 10 11 12 13 14 15 16 17 18 19 20 21 22
000
FTUS43 KDVN 151700
TAFCID
TAF
KCID 151720Z 1518/1618 14012KT 4SM BR BKN005
     FM152100 12009KT 3SM -SHRA BR OVC005
     FM160000 09006KT 2SM -RA BR OVC007
      TEMPO 1600/1604 1SM -RA BR OVC004
     FM160500 35013G20KT 2SM -RASN BR OVC008
     FM161500 34012G20KT 6SM BR OVC012=

USA.gov is the U.S. government's official web portal to all federal, state and local government web resources and services.